sensor_id;sensor_type;location;lat;lon;timestamp;pressure;altitude;pressure_sealevel;temperature;humidity
55066;BME280;40964;42.114;24.220;2022-07-10T00:01:12;97549.41;;;19.66;55.38
55066;BME280;40964;42.114;24.220;2022-07-10T00:03:38;97553.66;;;19.67;55.18
55066;BME280;40964;42.114;24.220;2022-07-10T00:06:03;97551.25;;;19.71;55.24
55066;BME280;40964;42.114;24.220;2022-07-10T00:08:29;97529.94;;;19.66;55.64
55066;BME280;40964;42.114;24.220;2022-07-10T00:10:55;97545.09;;;19.70;55.71
55066;BME280;40964;42.114;24.220;2022-07-10T00:13:20;97547.25;;;19.68;55.84
55066;BME280;40964;42.114;24.220;2022-07-10T00:15:46;97541.41;;;19.66;56.20
55066;BME280;40964;42.114;24.220;2022-07-10T00:18:11;97537.38;;;19.69;55.89
55066;BME280;40964;42.114;24.220;2022-07-10T00:20:37;97542.72;;;19.69;56.32
55066;BME280;40964;42.114;24.220;2022-07-10T00:23:02;97550.94;;;19.72;56.02
55066;BME280;40964;42.114;24.220;2022-07-10T00:25:28;97542.25;;;19.62;56.34
55066;BME280;40964;42.114;24.220;2022-07-10T00:27:54;97539.81;;;19.65;56.50
55066;BME280;40964;42.114;24.220;2022-07-10T00:30:19;97534.19;;;19.67;56.43
55066;BME280;40964;42.114;24.220;2022-07-10T00:32:48;97533.97;;;19.63;56.49
55066;BME280;40964;42.114;24.220;2022-07-10T00:35:13;97534.19;;;19.67;56.61
55066;BME280;40964;42.114;24.220;2022-07-10T00:37:39;97537.72;;;19.62;57.06
55066;BME280;40964;42.114;24.220;2022-07-10T00:40:08;97526.72;;;19.69;56.16
55066;BME280;40964;42.114;24.220;2022-07-10T00:42:33;97530.41;;;19.73;56.34
55066;BME280;40964;42.114;24.220;2022-07-10T00:44:59;97525.84;;;19.73;56.29
55066;BME280;40964;42.114;24.220;2022-07-10T00:47:24;97533.28;;;19.76;56.42
55066;BME280;40964;42.114;24.220;2022-07-10T00:49:53;97520.22;;;19.75;56.84
55066;BME280;40964;42.114;24.220;2022-07-10T00:52:19;97515.75;;;19.70;56.97
55066;BME280;40964;42.114;24.220;2022-07-10T00:54:46;97511.53;;;19.64;56.94
55066;BME280;40964;42.114;24.220;2022-07-10T00:57:13;97508.66;;;19.61;57.10
55066;BME280;40964;42.114;24.220;2022-07-10T00:59:46;97508.41;;;19.57;57.18
55066;BME280;40964;42.114;24.220;2022-07-10T01:02:13;97493.19;;;19.58;57.42
55066;BME280;40964;42.114;24.220;2022-07-10T01:04:39;97500.94;;;19.59;57.37
55066;BME280;40964;42.114;24.220;2022-07-10T01:07:05;97488.94;;;19.56;57.43
55066;BME280;40964;42.114;24.220;2022-07-10T01:09:32;97498.50;;;19.58;57.36
55066;BME280;40964;42.114;24.220;2022-07-10T01:12:00;97490.81;;;19.56;57.53
55066;BME280;40964;42.114;24.220;2022-07-10T01:14:27;97489.19;;;19.55;57.90
55066;BME280;40964;42.114;24.220;2022-07-10T01:16:53;97483.63;;;19.51;57.64
55066;BME280;40964;42.114;24.220;2022-07-10T01:19:19;97482.25;;;19.54;57.74
55066;BME280;40964;42.114;24.220;2022-07-10T01:21:45;97484.41;;;19.52;58.12
55066;BME280;40964;42.114;24.220;2022-07-10T01:24:11;97477.25;;;19.47;57.99
55066;BME280;40964;42.114;24.220;2022-07-10T01:26:38;97479.13;;;19.47;58.12
55066;BME280;40964;42.114;24.220;2022-07-10T01:29:09;97477.25;;;19.47;57.87
55066;BME280;40964;42.114;24.220;2022-07-10T01:31:35;97471.63;;;19.49;57.93
55066;BME280;40964;42.114;24.220;2022-07-10T01:34:02;97468.41;;;19.52;57.61
55066;BME280;40964;42.114;24.220;2022-07-10T01:36:30;97461.81;;;19.44;57.76
55066;BME280;40964;42.114;24.220;2022-07-10T01:38:57;97463.91;;;19.47;58.42
55066;BME280;40964;42.114;24.220;2022-07-10T01:41:23;97461.25;;;19.47;57.62
55066;BME280;40964;42.114;24.220;2022-07-10T01:43:50;97453.50;;;19.51;57.62
55066;BME280;40964;42.114;24.220;2022-07-10T01:46:16;97446.03;;;19.48;58.08
55066;BME280;40964;42.114;24.220;2022-07-10T01:48:42;97454.53;;;19.50;57.70
55066;BME280;40964;42.114;24.220;2022-07-10T01:51:09;97457.22;;;19.50;57.87
55066;BME280;40964;42.114;24.220;2022-07-10T01:53:35;97461.25;;;19.47;58.17
55066;BME280;40964;42.114;24.220;2022-07-10T01:56:03;97461.56;;;19.41;58.58
55066;BME280;40964;42.114;24.220;2022-07-10T01:58:29;97462.72;;;19.35;58.59
55066;BME280;40964;42.114;24.220;2022-07-10T02:00:55;97465.31;;;19.40;57.96
55066;BME280;40964;42.114;24.220;2022-07-10T02:03:20;97453.53;;;19.46;57.82
55066;BME280;40964;42.114;24.220;2022-07-10T02:06:05;97456.22;;;19.41;58.51
55066;BME280;40964;42.114;24.220;2022-07-10T02:08:30;97455.97;;;19.42;58.05
55066;BME280;40964;42.114;24.220;2022-07-10T02:10:59;97463.00;;;19.33;59.36
55066;BME280;40964;42.114;24.220;2022-07-10T02:13:25;97457.19;;;19.26;59.03
55066;BME280;40964;42.114;24.220;2022-07-10T02:15:53;97467.84;;;19.26;58.83
55066;BME280;40964;42.114;24.220;2022-07-10T02:18:19;97462.00;;;19.24;59.09
55066;BME280;40964;42.114;24.220;2022-07-10T02:20:45;97462.81;;;19.24;60.08
55066;BME280;40964;42.114;24.220;2022-07-10T02:23:11;97458.38;;;19.10;59.74
55066;BME280;40964;42.114;24.220;2022-07-10T02:25:37;97467.25;;;19.00;61.14
55066;BME280;40964;42.114;24.220;2022-07-10T02:28:03;97472.38;;;18.91;62.29
55066;BME280;40964;42.114;24.220;2022-07-10T02:30:28;97473.56;;;18.75;61.33
55066;BME280;40964;42.114;24.220;2022-07-10T02:32:54;97468.53;;;18.68;63.24
55066;BME280;40964;42.114;24.220;2022-07-10T02:35:20;97467.50;;;18.69;62.42
55066;BME280;40964;42.114;24.220;2022-07-10T02:37:45;97471.47;;;18.67;61.78
55066;BME280;40964;42.114;24.220;2022-07-10T02:40:11;97469.06;;;18.70;62.00
55066;BME280;40964;42.114;24.220;2022-07-10T02:42:36;97471.75;;;18.70;62.70
55066;BME280;40964;42.114;24.220;2022-07-10T02:45:03;97474.97;;;18.62;63.42
55066;BME280;40964;42.114;24.220;2022-07-10T02:47:28;97472.38;;;18.47;64.56
55066;BME280;40964;42.114;24.220;2022-07-10T02:49:54;97473.22;;;18.42;64.73
55066;BME280;40964;42.114;24.220;2022-07-10T02:52:20;97475.09;;;18.37;64.33
55066;BME280;40964;42.114;24.220;2022-07-10T02:54:45;97469.06;;;18.16;65.31
55066;BME280;40964;42.114;24.220;2022-07-10T02:57:11;97478.13;;;18.10;66.08
55066;BME280;40964;42.114;24.220;2022-07-10T02:59:36;97474.66;;;18.14;65.73
55066;BME280;40964;42.114;24.220;2022-07-10T03:02:02;97483.47;;;18.05;65.35
55066;BME280;40964;42.114;24.220;2022-07-10T03:04:28;97475.50;;;18.05;65.83
55066;BME280;40964;42.114;24.220;2022-07-10T03:06:54;97468.34;;;18.00;65.46
55066;BME280;40964;42.114;24.220;2022-07-10T03:09:19;97478.69;;;18.02;65.22
55066;BME280;40964;42.114;24.220;2022-07-10T03:11:45;97468.84;;;18.02;66.28
55066;BME280;40964;42.114;24.220;2022-07-10T03:14:11;97474.16;;;18.07;64.33
55066;BME280;40964;42.114;24.220;2022-07-10T03:16:36;97479.97;;;18.14;66.20
55066;BME280;40964;42.114;24.220;2022-07-10T03:19:02;97473.59;;;18.15;66.05
55066;BME280;40964;42.114;24.220;2022-07-10T03:21:28;97475.75;;;18.08;66.71
55066;BME280;40964;42.114;24.220;2022-07-10T03:23:55;97478.94;;;18.10;67.50
55066;BME280;40964;42.114;24.220;2022-07-10T03:26:20;97484.25;;;18.10;66.92
55066;BME280;40964;42.114;24.220;2022-07-10T03:28:46;97472.00;;;18.14;65.56
55066;BME280;40964;42.114;24.220;2022-07-10T03:31:12;97477.75;;;18.32;64.20
55066;BME280;40964;42.114;24.220;2022-07-10T03:33:37;97481.94;;;18.48;64.26
55066;BME280;40964;42.114;24.220;2022-07-10T03:36:04;97485.09;;;18.60;64.02
55066;BME280;40964;42.114;24.220;2022-07-10T03:38:30;97475.44;;;18.75;62.61
55066;BME280;40964;42.114;24.220;2022-07-10T03:40:56;97471.66;;;18.81;62.62
55066;BME280;40964;42.114;24.220;2022-07-10T03:43:21;97472.69;;;18.90;61.80
55066;BME280;40964;42.114;24.220;2022-07-10T03:45:47;97476.63;;;18.97;62.07
55066;BME280;40964;42.114;24.220;2022-07-10T03:48:13;97481.69;;;18.94;62.84
55066;BME280;40964;42.114;24.220;2022-07-10T03:50:41;97474.50;;;18.94;63.89
55066;BME280;40964;42.114;24.220;2022-07-10T03:53:07;97473.22;;;18.87;62.99
55066;BME280;40964;42.114;24.220;2022-07-10T03:55:32;97472.69;;;18.85;63.84
55066;BME280;40964;42.114;24.220;2022-07-10T03:57:58;97470.31;;;18.83;64.33
55066;BME280;40964;42.114;24.220;2022-07-10T04:00:28;97475.13;;;18.81;65.22
55066;BME280;40964;42.114;24.220;2022-07-10T04:02:57;97473.53;;;18.80;65.36
55066;BME280;40964;42.114;24.220;2022-07-10T04:05:24;97476.78;;;18.72;65.92
55066;BME280;40964;42.114;24.220;2022-07-10T04:07:50;97474.97;;;18.62;64.86
55066;BME280;40964;42.114;24.220;2022-07-10T04:10:15;97477.03;;;18.76;64.05
55066;BME280;40964;42.114;24.220;2022-07-10T04:12:42;97468.41;;;18.89;63.68
55066;BME280;40964;42.114;24.220;2022-07-10T04:15:07;97471.81;;;18.94;62.57
55066;BME280;40964;42.114;24.220;2022-07-10T04:17:36;97467.97;;;19.11;63.07
55066;BME280;40964;42.114;24.220;2022-07-10T04:20:02;97467.09;;;19.20;62.18
55066;BME280;40964;42.114;24.220;2022-07-10T04:22:28;97461.31;;;19.42;60.71
55066;BME280;40964;42.114;24.220;2022-07-10T04:24:54;97462.50;;;19.55;60.33
55066;BME280;40964;42.114;24.220;2022-07-10T04:27:20;97460.44;;;19.76;59.72
55066;BME280;40964;42.114;24.220;2022-07-10T04:29:46;97447.06;;;19.81;59.36
55066;BME280;40964;42.114;24.220;2022-07-10T04:32:12;97450.28;;;20.02;57.29
55066;BME280;40964;42.114;24.220;2022-07-10T04:34:38;97454.69;;;20.11;58.17
55066;BME280;40964;42.114;24.220;2022-07-10T04:37:05;97453.28;;;20.19;56.89
55066;BME280;40964;42.114;24.220;2022-07-10T04:39:37;97459.34;;;20.25;58.43
55066;BME280;40964;42.114;24.220;2022-07-10T04:42:07;97455.75;;;20.34;57.95
55066;BME280;40964;42.114;24.220;2022-07-10T04:44:34;97456.25;;;20.36;57.40
55066;BME280;40964;42.114;24.220;2022-07-10T04:47:00;97455.66;;;20.39;56.89
55066;BME280;40964;42.114;24.220;2022-07-10T04:49:26;97458.31;;;20.45;57.89
55066;BME280;40964;42.114;24.220;2022-07-10T04:51:52;97461.97;;;20.49;57.12
55066;BME280;40964;42.114;24.220;2022-07-10T04:54:17;97459.03;;;20.50;57.72
55066;BME280;40964;42.114;24.220;2022-07-10T04:56:43;97446.69;;;20.54;57.34
55066;BME280;40964;42.114;24.220;2022-07-10T04:59:09;97458.16;;;20.55;57.43
55066;BME280;40964;42.114;24.220;2022-07-10T05:01:36;97462.22;;;20.52;57.03
55066;BME280;40964;42.114;24.220;2022-07-10T05:04:04;97443.28;;;20.49;57.29
55066;BME280;40964;42.114;24.220;2022-07-10T05:06:30;97458.66;;;20.57;56.90
55066;BME280;40964;42.114;24.220;2022-07-10T05:08:56;97454.84;;;20.63;56.79
55066;BME280;40964;42.114;24.220;2022-07-10T05:11:22;97454.00;;;20.67;57.40
55066;BME280;40964;42.114;24.220;2022-07-10T05:13:48;97448.56;;;20.73;56.69
55066;BME280;40964;42.114;24.220;2022-07-10T05:16:15;97445.81;;;20.78;56.89
55066;BME280;40964;42.114;24.220;2022-07-10T05:18:40;97447.38;;;20.97;56.70
55066;BME280;40964;42.114;24.220;2022-07-10T05:21:07;97449.28;;;21.11;56.00
55066;BME280;40964;42.114;24.220;2022-07-10T05:23:33;97452.09;;;21.19;56.45
55066;BME280;40964;42.114;24.220;2022-07-10T05:25:59;97446.47;;;21.21;57.06
55066;BME280;40964;42.114;24.220;2022-07-10T05:28:24;97452.97;;;21.34;56.20
55066;BME280;40964;42.114;24.220;2022-07-10T05:30:50;97448.81;;;21.41;55.58
55066;BME280;40964;42.114;24.220;2022-07-10T05:33:16;97447.63;;;21.47;56.08
55066;BME280;40964;42.114;24.220;2022-07-10T05:35:42;97440.00;;;21.54;56.95
55066;BME280;40964;42.114;24.220;2022-07-10T05:38:08;97446.84;;;21.61;55.75
55066;BME280;40964;42.114;24.220;2022-07-10T05:40:34;97452.59;;;21.54;55.61
55066;BME280;40964;42.114;24.220;2022-07-10T05:43:00;97455.47;;;21.71;55.54
55066;BME280;40964;42.114;24.220;2022-07-10T05:45:25;97444.00;;;21.85;55.45
55066;BME280;40964;42.114;24.220;2022-07-10T05:47:51;97454.22;;;21.96;55.37
55066;BME280;40964;42.114;24.220;2022-07-10T05:50:17;97455.00;;;22.10;54.81
55066;BME280;40964;42.114;24.220;2022-07-10T05:52:43;97451.72;;;22.27;53.80
55066;BME280;40964;42.114;24.220;2022-07-10T05:55:08;97452.50;;;22.28;52.97
55066;BME280;40964;42.114;24.220;2022-07-10T05:57:35;97454.78;;;22.34;53.39
55066;BME280;40964;42.114;24.220;2022-07-10T06:00:01;97460.03;;;22.40;54.26
55066;BME280;40964;42.114;24.220;2022-07-10T06:02:29;97456.34;;;22.49;52.95
55066;BME280;40964;42.114;24.220;2022-07-10T06:04:54;97461.78;;;22.58;53.18
55066;BME280;40964;42.114;24.220;2022-07-10T06:07:22;97469.38;;;22.64;52.85
55066;BME280;40964;42.114;24.220;2022-07-10T06:09:48;97466.59;;;22.70;53.43
55066;BME280;40964;42.114;24.220;2022-07-10T06:12:14;97467.59;;;22.74;52.37
55066;BME280;40964;42.114;24.220;2022-07-10T06:14:41;97460.84;;;22.76;53.18
55066;BME280;40964;42.114;24.220;2022-07-10T06:17:07;97458.50;;;22.97;51.94
55066;BME280;40964;42.114;24.220;2022-07-10T06:19:33;97471.19;;;23.05;52.13
55066;BME280;40964;42.114;24.220;2022-07-10T06:21:58;97467.63;;;23.18;53.79
55066;BME280;40964;42.114;24.220;2022-07-10T06:24:43;97463.78;;;22.88;52.81
55066;BME280;40964;42.114;24.220;2022-07-10T06:27:08;97463.75;;;23.02;52.89
55066;BME280;40964;42.114;24.220;2022-07-10T06:29:34;97463.44;;;22.67;52.74
55066;BME280;40964;42.114;24.220;2022-07-10T06:32:03;97456.84;;;22.37;53.74
55066;BME280;40964;42.114;24.220;2022-07-10T06:34:28;97458.56;;;22.33;54.10
55066;BME280;40964;42.114;24.220;2022-07-10T06:36:54;97457.13;;;22.50;54.10
55066;BME280;40964;42.114;24.220;2022-07-10T06:39:20;97465.09;;;22.41;54.76
55066;BME280;40964;42.114;24.220;2022-07-10T06:41:46;97458.38;;;22.30;55.68
55066;BME280;40964;42.114;24.220;2022-07-10T06:44:11;97460.38;;;22.60;54.73
55066;BME280;40964;42.114;24.220;2022-07-10T06:46:37;97461.38;;;23.01;54.67
55066;BME280;40964;42.114;24.220;2022-07-10T06:49:02;97460.44;;;23.28;51.84
55066;BME280;40964;42.114;24.220;2022-07-10T06:51:28;97462.06;;;23.60;52.61
55066;BME280;40964;42.114;24.220;2022-07-10T06:53:55;97452.56;;;23.93;53.54
55066;BME280;40964;42.114;24.220;2022-07-10T06:56:21;97467.00;;;24.15;50.53
55066;BME280;40964;42.114;24.220;2022-07-10T06:58:46;97462.56;;;24.10;50.88
55066;BME280;40964;42.114;24.220;2022-07-10T07:01:12;97463.03;;;24.03;50.32
55066;BME280;40964;42.114;24.220;2022-07-10T07:03:37;97458.16;;;24.14;52.12
55066;BME280;40964;42.114;24.220;2022-07-10T07:06:05;97452.88;;;23.92;51.14
55066;BME280;40964;42.114;24.220;2022-07-10T07:08:35;97457.41;;;23.74;51.67
55066;BME280;40964;42.114;24.220;2022-07-10T07:11:02;97464.88;;;23.94;53.72
55066;BME280;40964;42.114;24.220;2022-07-10T07:13:28;97474.44;;;24.09;50.68
55066;BME280;40964;42.114;24.220;2022-07-10T07:15:54;97469.88;;;24.27;51.41
55066;BME280;40964;42.114;24.220;2022-07-10T07:18:25;97465.84;;;24.47;51.79
55066;BME280;40964;42.114;24.220;2022-07-10T07:21:02;97460.50;;;24.16;51.81
55066;BME280;40964;42.114;24.220;2022-07-10T07:23:46;97463.41;;;23.79;51.40
55066;BME280;40964;42.114;24.220;2022-07-10T07:26:12;97464.53;;;23.56;52.56
55066;BME280;40964;42.114;24.220;2022-07-10T07:28:38;97462.47;;;23.53;52.50
55066;BME280;40964;42.114;24.220;2022-07-10T07:31:04;97456.00;;;23.54;51.82
55066;BME280;40964;42.114;24.220;2022-07-10T07:33:29;97455.06;;;23.59;52.01
55066;BME280;40964;42.114;24.220;2022-07-10T07:35:55;97468.50;;;23.59;52.16
55066;BME280;40964;42.114;24.220;2022-07-10T07:38:24;97454.19;;;23.72;53.60
55066;BME280;40964;42.114;24.220;2022-07-10T07:40:50;97461.56;;;23.97;51.07
55066;BME280;40964;42.114;24.220;2022-07-10T07:43:16;97459.31;;;23.82;50.78
55066;BME280;40964;42.114;24.220;2022-07-10T07:45:41;97458.25;;;23.92;51.63
55066;BME280;40964;42.114;24.220;2022-07-10T07:48:07;97461.81;;;23.78;51.77
55066;BME280;40964;42.114;24.220;2022-07-10T07:50:34;97458.59;;;23.59;51.31
55066;BME280;40964;42.114;24.220;2022-07-10T07:53:01;97465.03;;;23.58;51.66
55066;BME280;40964;42.114;24.220;2022-07-10T07:55:28;97442.88;;;23.75;51.48
55066;BME280;40964;42.114;24.220;2022-07-10T07:57:56;97467.22;;;23.87;52.45
55066;BME280;40964;42.114;24.220;2022-07-10T08:00:24;97462.00;;;23.82;51.93
55066;BME280;40964;42.114;24.220;2022-07-10T08:02:50;97468.69;;;23.93;51.68
55066;BME280;40964;42.114;24.220;2022-07-10T08:05:16;97465.56;;;23.69;52.95
55066;BME280;40964;42.114;24.220;2022-07-10T08:07:48;97473.34;;;23.79;53.21
55066;BME280;40964;42.114;24.220;2022-07-10T08:10:17;97471.34;;;23.85;52.89
55066;BME280;40964;42.114;24.220;2022-07-10T08:12:43;97471.22;;;23.98;52.45
55066;BME280;40964;42.114;24.220;2022-07-10T08:15:11;97480.00;;;24.30;53.19
55066;BME280;40964;42.114;24.220;2022-07-10T08:17:38;97476.59;;;24.47;50.85
55066;BME280;40964;42.114;24.220;2022-07-10T08:20:05;97477.69;;;24.37;51.40
55066;BME280;40964;42.114;24.220;2022-07-10T08:22:32;97491.31;;;24.58;52.01
55066;BME280;40964;42.114;24.220;2022-07-10T08:24:58;97479.63;;;24.62;50.40
55066;BME280;40964;42.114;24.220;2022-07-10T08:27:24;97488.91;;;24.39;50.84
55066;BME280;40964;42.114;24.220;2022-07-10T08:29:50;97490.19;;;24.50;52.18
55066;BME280;40964;42.114;24.220;2022-07-10T08:32:16;97481.66;;;24.66;50.96
55066;BME280;40964;42.114;24.220;2022-07-10T08:34:41;97497.13;;;24.51;50.26
55066;BME280;40964;42.114;24.220;2022-07-10T08:37:10;97501.41;;;24.44;51.32
55066;BME280;40964;42.114;24.220;2022-07-10T08:39:35;97491.94;;;24.55;49.99
55066;BME280;40964;42.114;24.220;2022-07-10T08:42:06;97498.28;;;24.76;51.78
55066;BME280;40964;42.114;24.220;2022-07-10T08:44:33;97497.34;;;24.72;50.19
55066;BME280;40964;42.114;24.220;2022-07-10T08:46:59;97493.50;;;24.39;49.51
55066;BME280;40964;42.114;24.220;2022-07-10T08:49:29;97493.63;;;24.33;50.63
55066;BME280;40964;42.114;24.220;2022-07-10T08:52:33;97495.41;;;24.47;50.40
55066;BME280;40964;42.114;24.220;2022-07-10T08:54:50;97500.34;;;24.88;49.44
55066;BME280;40964;42.114;24.220;2022-07-10T08:57:17;97485.16;;;24.83;49.01
55066;BME280;40964;42.114;24.220;2022-07-10T08:59:43;97483.97;;;25.62;48.52
55066;BME280;40964;42.114;24.220;2022-07-10T09:02:08;97487.88;;;25.82;46.12
55066;BME280;40964;42.114;24.220;2022-07-10T09:04:34;97485.50;;;26.19;48.35
55066;BME280;40964;42.114;24.220;2022-07-10T09:06:59;97492.06;;;25.62;45.91
55066;BME280;40964;42.114;24.220;2022-07-10T09:09:25;97491.59;;;25.52;48.50
55066;BME280;40964;42.114;24.220;2022-07-10T09:11:57;97495.41;;;25.42;48.79
55066;BME280;40964;42.114;24.220;2022-07-10T09:14:25;97492.13;;;25.28;46.62
55066;BME280;40964;42.114;24.220;2022-07-10T09:16:53;97486.44;;;25.03;48.04
55066;BME280;40964;42.114;24.220;2022-07-10T09:21:50;97497.97;;;24.95;48.41
55066;BME280;40964;42.114;24.220;2022-07-10T09:24:16;97490.22;;;24.76;47.04
55066;BME280;40964;42.114;24.220;2022-07-10T09:27:03;97492.44;;;24.66;48.79
55066;BME280;40964;42.114;24.220;2022-07-10T09:29:44;97487.69;;;24.62;50.20
55066;BME280;40964;42.114;24.220;2022-07-10T09:32:11;97486.75;;;24.93;50.23
55066;BME280;40964;42.114;24.220;2022-07-10T09:34:43;97485.50;;;25.16;48.00
55066;BME280;40964;42.114;24.220;2022-07-10T09:37:28;97483.88;;;24.98;48.10
55066;BME280;40964;42.114;24.220;2022-07-10T09:39:58;97491.00;;;24.85;46.49
55066;BME280;40964;42.114;24.220;2022-07-10T09:42:38;97482.28;;;24.97;47.46
55066;BME280;40964;42.114;24.220;2022-07-10T09:52:58;97480.72;;;25.13;47.57
55066;BME280;40964;42.114;24.220;2022-07-10T09:55:33;97479.28;;;25.33;46.31
55066;BME280;40964;42.114;24.220;2022-07-10T09:58:09;97477.53;;;25.37;47.75
55066;BME280;40964;42.114;24.220;2022-07-10T10:00:37;97475.97;;;25.36;46.90
55066;BME280;40964;42.114;24.220;2022-07-10T10:03:08;97478.13;;;25.52;45.38
55066;BME280;40964;42.114;24.220;2022-07-10T10:05:36;97477.53;;;25.46;46.49
55066;BME280;40964;42.114;24.220;2022-07-10T10:08:15;97463.28;;;25.92;44.06
55066;BME280;40964;42.114;24.220;2022-07-10T10:10:51;97465.59;;;26.32;44.28
55066;BME280;40964;42.114;24.220;2022-07-10T10:13:22;97462.63;;;26.96;46.29
55066;BME280;40964;42.114;24.220;2022-07-10T10:15:56;97454.25;;;27.10;43.44
55066;BME280;40964;42.114;24.220;2022-07-10T10:18:23;97449.63;;;27.56;44.60
55066;BME280;40964;42.114;24.220;2022-07-10T10:20:51;97457.94;;;27.96;42.64
55066;BME280;40964;42.114;24.220;2022-07-10T10:23:19;97443.97;;;27.69;40.25
55066;BME280;40964;42.114;24.220;2022-07-10T10:25:52;97445.63;;;28.11;39.29
55066;BME280;40964;42.114;24.220;2022-07-10T10:28:20;97434.56;;;28.52;39.78
55066;BME280;40964;42.114;24.220;2022-07-10T10:30:50;97437.56;;;28.63;40.30
55066;BME280;40964;42.114;24.220;2022-07-10T10:35:58;97439.91;;;28.00;39.60
55066;BME280;40964;42.114;24.220;2022-07-10T10:38:24;97437.47;;;27.50;39.25
55066;BME280;40964;42.114;24.220;2022-07-10T10:40:50;97434.06;;;27.40;39.61
55066;BME280;40964;42.114;24.220;2022-07-10T10:43:23;97436.75;;;27.28;41.41
55066;BME280;40964;42.114;24.220;2022-07-10T10:45:49;97439.44;;;26.95;42.25
55066;BME280;40964;42.114;24.220;2022-07-10T10:48:16;97447.41;;;26.92;42.09
55066;BME280;40964;42.114;24.220;2022-07-10T10:50:47;97427.69;;;26.79;43.17
55066;BME280;40964;42.114;24.220;2022-07-10T10:53:26;97435.72;;;26.46;43.96
55066;BME280;40964;42.114;24.220;2022-07-10T10:58:44;97432.94;;;26.34;48.99
55066;BME280;40964;42.114;24.220;2022-07-10T11:04:12;97431.66;;;26.61;46.79
55066;BME280;40964;42.114;24.220;2022-07-10T11:06:46;97431.97;;;26.80;44.37
55066;BME280;40964;42.114;24.220;2022-07-10T11:09:31;97432.88;;;27.50;45.87
55066;BME280;40964;42.114;24.220;2022-07-10T11:14:34;97422.69;;;27.80;40.54
55066;BME280;40964;42.114;24.220;2022-07-10T11:17:02;97409.19;;;27.68;41.72
55066;BME280;40964;42.114;24.220;2022-07-10T11:19:29;97416.94;;;27.82;41.37
55066;BME280;40964;42.114;24.220;2022-07-10T11:25:22;97411.50;;;28.18;39.93
55066;BME280;40964;42.114;24.220;2022-07-10T11:27:52;97406.59;;;28.61;38.40
55066;BME280;40964;42.114;24.220;2022-07-10T11:30:20;97394.59;;;28.34;40.06
55066;BME280;40964;42.114;24.220;2022-07-10T11:32:46;97397.69;;;28.60;37.97
55066;BME280;40964;42.114;24.220;2022-07-10T11:35:13;97389.47;;;29.13;41.64
55066;BME280;40964;42.114;24.220;2022-07-10T11:37:52;97394.13;;;29.75;38.27
55066;BME280;40964;42.114;24.220;2022-07-10T11:40:19;97389.00;;;30.05;36.67
55066;BME280;40964;42.114;24.220;2022-07-10T11:42:52;97389.28;;;30.16;36.27
55066;BME280;40964;42.114;24.220;2022-07-10T11:45:36;97384.94;;;29.64;35.79
55066;BME280;40964;42.114;24.220;2022-07-10T11:48:04;97388.84;;;29.19;36.89
55066;BME280;40964;42.114;24.220;2022-07-10T11:50:35;97385.19;;;29.27;37.74
55066;BME280;40964;42.114;24.220;2022-07-10T11:53:02;97383.56;;;29.70;36.13
55066;BME280;40964;42.114;24.220;2022-07-10T11:55:28;97378.00;;;29.98;34.85
55066;BME280;40964;42.114;24.220;2022-07-10T11:57:55;97371.94;;;30.05;35.76
55066;BME280;40964;42.114;24.220;2022-07-10T12:00:29;97384.13;;;30.11;35.64
55066;BME280;40964;42.114;24.220;2022-07-10T12:02:56;97385.47;;;29.54;36.38
55066;BME280;40964;42.114;24.220;2022-07-10T12:07:57;97380.78;;;29.07;36.94
55066;BME280;40964;42.114;24.220;2022-07-10T12:10:27;97385.00;;;29.36;39.78
55066;BME280;40964;42.114;24.220;2022-07-10T12:12:53;97376.03;;;29.63;37.77
55066;BME280;40964;42.114;24.220;2022-07-10T12:15:43;97368.50;;;30.23;37.96
55066;BME280;40964;42.114;24.220;2022-07-10T12:18:16;97369.50;;;30.35;35.79
55066;BME280;40964;42.114;24.220;2022-07-10T12:20:42;97388.31;;;29.92;35.60
55066;BME280;40964;42.114;24.220;2022-07-10T12:23:16;97383.56;;;28.67;39.27
55066;BME280;40964;42.114;24.220;2022-07-10T12:25:44;97385.59;;;27.56;41.17
55066;BME280;40964;42.114;24.220;2022-07-10T12:28:10;97377.25;;;26.92;42.54
55066;BME280;40964;42.114;24.220;2022-07-10T12:30:45;97386.63;;;26.73;45.71
55066;BME280;40964;42.114;24.220;2022-07-10T12:33:13;97380.34;;;26.81;43.36
55066;BME280;40964;42.114;24.220;2022-07-10T12:38:22;97381.22;;;26.11;44.72
55066;BME280;40964;42.114;24.220;2022-07-10T12:40:48;97386.22;;;26.21;45.51
55066;BME280;40964;42.114;24.220;2022-07-10T12:43:29;97369.25;;;25.99;43.42
55066;BME280;40964;42.114;24.220;2022-07-10T12:48:43;97378.94;;;25.62;46.17
55066;BME280;40964;42.114;24.220;2022-07-10T12:51:23;97380.25;;;25.86;47.44
55066;BME280;40964;42.114;24.220;2022-07-10T12:53:50;97364.03;;;25.94;46.56
55066;BME280;40964;42.114;24.220;2022-07-10T12:56:36;97372.16;;;26.15;46.76
55066;BME280;40964;42.114;24.220;2022-07-10T12:59:14;97368.81;;;26.39;46.79
55066;BME280;40964;42.114;24.220;2022-07-10T13:01:43;97374.06;;;26.56;45.66
55066;BME280;40964;42.114;24.220;2022-07-10T13:04:09;97378.41;;;26.70;45.33
55066;BME280;40964;42.114;24.220;2022-07-10T13:06:37;97368.09;;;26.84;46.62
55066;BME280;40964;42.114;24.220;2022-07-10T13:09:19;97360.47;;;26.86;45.44
55066;BME280;40964;42.114;24.220;2022-07-10T13:11:44;97365.91;;;26.98;46.08
55066;BME280;40964;42.114;24.220;2022-07-10T13:14:10;97370.63;;;27.01;44.82
55066;BME280;40964;42.114;24.220;2022-07-10T13:16:35;97363.31;;;27.02;46.11
55066;BME280;40964;42.114;24.220;2022-07-10T13:19:01;97359.25;;;26.96;46.03
55066;BME280;40964;42.114;24.220;2022-07-10T13:21:26;97358.34;;;26.92;46.63
55066;BME280;40964;42.114;24.220;2022-07-10T13:23:52;97359.81;;;26.89;46.52
55066;BME280;40964;42.114;24.220;2022-07-10T13:26:17;97345.47;;;26.76;46.77